Terminal Aerodrome Forecast
Issued by NWS

Home | Current Version | Previous Version | Text Only | Print | Product List | Glossary Off
Versions: 1 2 3 4 5 6 7 8 9 10 11 12 13

000
FTUS43 KIWX 171100
TAFSBN
TAF
KSBN 171122Z 1712/1812 20009KT P6SM SCT015 BKN050
     FM171500 25012G18KT P6SM SCT025
     FM171700 26014G22KT P6SM BKN030
     FM180100 30012G17KT P6SM VCSH OVC020=

USA.gov is the U.S. government's official web portal to all federal, state and local government web resources and services.